ADDS METAR Data INFO
IDs: Format: Raw Decoded Include TAF

Data at: 1350 UTC 23 Jun 2018

KYIP 231253Z 03006KT 5SM -RA BR OVC005 21/19 A2969 RMK AO2 RAB45 SLP048 P0000 T02110189
KYIP 231153Z 02006KT 5SM BR OVC005 21/19 A2969 RMK AO2 RAE13 SLP050 P0001 60003 70008 T02110189 10211 20200 53006
KYIP 231053Z 03003KT 3SM -RA BR OVC005 21/19 A2969 RMK AO2 SLP048 P0002 T02060189
KYIP 230953Z 09005KT 8SM -RA OVC008 21/18 A2967 RMK AO2 RAB26 SLP043 P0000 T02060183
KYIP 230853Z 05005KT 7SM OVC008 21/18 A2968 RMK AO2 SLP043 T02060183 58010
KYIP 230753Z 04003KT 9SM OVC008 20/18 A2969 RMK AO2 SLP048 T02000183
KYIP 230718Z 06003KT 8SM BKN009 OVC014 20/18 A2970 RMK AO2 T02000183
KYIP 230653Z 05004KT 7SM BKN010 OVC015 20/18 A2970 RMK AO2 SLP049 T02000178
KYIP 230553Z 06005KT 7SM OVC012 20/18 A2971 RMK AO2 SLP053 60002 T02000178 10200 20189 57003
KYIP 230550Z 06005KT 6SM BR OVC012 20/18 A2971 RMK AO2
KYIP 230453Z 04005KT 5SM BR OVC009 20/18 A2972 RMK AO2 CIG 006V014 SLP056 T02000178 402390183
KYIP 230422Z 04005KT 5SM BR BKN011 OVC018 19/18 A2972 RMK AO2 T01940178
KYIP 230353Z AUTO 05006KT 5SM BR BKN008 BKN013 OVC018 19/18 A2972 RMK AO2 CIG 006V012 SLP056 T01940178
KYIP 230253Z 05008KT 5SM BR OVC005 19/17 A2973 RMK AO2 SLP061 60002 T01940172 56001
KYIP 230153Z 05010KT 7SM OVC006 19/17 A2973 RMK AO2 RAE30 SLP061 P0002 T01890172
KYIP 230151Z 05008KT 7SM OVC006 19/17 A2973 RMK AO2 RAE30 P0002
KYIP 230112Z 06010KT 3SM -RA BR OVC004 19/17 A2973 RMK AO2 P0002 T01890172
KYIP 230103Z 06009KT 1 3/4SM RA BR OVC004 19/17 A2973 RMK AO2 P0002 T01890172
KYIP 230053Z 06009KT 4SM -RA BR OVC004 19/17 A2973 RMK AO2 RAB52 SLP063 P0000 T01890172
KYIP 230021Z 06010KT 3SM BR OVC005 19/17 A2974 RMK AO2 T01890172
KYIP 222353Z 06010G25KT 2 1/2SM BR OVC005 19/17 A2974 RMK AO2 SLP067 60003 T01890172 10233 20189 55008
KYIP 222338Z 06010KT 3SM BR OVC005 19/17 A2975 RMK AO2 CIG 003V009 T01890172
KYIP 222328Z 2SM BR OVC007 19/17 A2974 RMK AO2 CIG 003V009 T01890172
KYIP 222253Z 07009KT 5SM BR OVC009 19/17 A2974 RMK AO2 RAE29 CIG 005V014 SLP066 P0001 T01940172
KYIP 222248Z 07012KT 4SM BR BKN007 OVC013 19/17 A2974 RMK AO2 RAE29 CIG 004V010 P0001
KYIP 222201Z 07009KT 2SM -RA BKN009 OVC013 19/17 A2977 RMK AO2 CIG 006V012 P0000 T01940167
KYIP 222153Z 06011KT 4SM -RA OVC013 19/17 A2977 RMK AO2 RAB2056E20B36 SLP075 P0002 T01940167
KYIP 222146Z 06010KT 5SM -RA OVC013 19/17 A2977 RMK AO2 RAB2056E20B36 P0002 T01940167
KYIP 222053Z 08013KT 10SM FEW015 OVC020 21/16 A2978 RMK AO2 RAE1956 SLP078 P0000 60000 T02060161 55006
KYIP 221953Z 07016G20KT 10SM -RA OVC025 22/16 A2977 RMK AO2 RAB42 SLP076 P0000 T02170156
KYIP 221853Z 07013G19KT 10SM OVC026 23/16 A2977 RMK AO2 RAE02 SLP075 P0000 T02330161
KYIP 221753Z 06013KT 10SM -RA OVC029 23/16 A2979 RMK AO2 RAB16E31B48 SLP083 P0000 60000 T02280161 10239 20189 58006
KYIP 221737Z 07009KT 10SM BKN029 BKN035 OVC090 23/16 A2980 RMK AO2 RAB16E31 P0000 T02280156
KYIP 221653Z 07009KT 10SM SCT029 BKN090 BKN110 23/16 A2980 RMK AO2 SLP086 T02330161
KYIP 221553Z 07014G19KT 10SM OVC100 24/16 A2980 RMK AO2 SLP085 T02390161
KYIP 221453Z 07013KT 10SM OVC095 23/16 A2981 RMK AO2 SLP089 T02280156 58003
KYIP 221353Z 09013KT 10SM OVC110 22/15 A2982 RMK AO2 SLP092 T02170150
KYIP 221253Z 06009KT 10SM R05R/4500VP6000FT BKN110 21/12 A2983 RMK AO2 SLP095 T02060122
KYIP 221153Z 05008KT 10SM OVC110 19/10 A2982 RMK AO2 SLP092 60000 T01890100 10200 20183 58000
KYIP 221053Z 05008KT 10SM OVC110 18/09 A2983 RMK AO2 SLP094 T01830094
KYIP 220953Z 06008KT 10SM OVC110 18/09 A2982 RMK AO2 RAB17E40 SLP092 P0000 T01830094
KYIP 220853Z 06010KT 10SM OVC120 19/09 A2982 RMK AO2 RAB07E16 SLP091 P0000 60000 T01940089 56007
KYIP 220753Z 07009KT 10SM BKN120 20/10 A2983 RMK AO2 SLP092 T02000100
KYIP 220653Z 07007KT 10SM BKN110 19/12 A2984 RMK AO2 SLP096 T01940117
KYIP 220553Z 05010KT 10SM FEW120 20/12 A2984 RMK AO2 SLP099 T02000117 10244 20200 58007
KYIP 220453Z 05007KT 10SM CLR 21/11 A2986 RMK AO2 SLP103 T02060111 402670144
KYIP 220353Z 05009KT 10SM CLR 21/14 A2986 RMK AO2 SLP104 T02110144
KYIP 220253Z 07009KT 10SM CLR 22/15 A2987 RMK AO2 SLP106 T02170150 53009
KYIP 220153Z 07009KT 10SM CLR 22/15 A2985 RMK AO2 SLP102 T02220150